Terminal Aerodrome Forecast
Issued by NWS

Home | Current Version | Previous Version | Text Only | Print | Product List | Glossary On
Versions: 1 2 3 4 5 6 7 8 9 10 11 12 13 14
814
FTUS45 KTFX 041750
TAFBZN
TAF
KBZN 041750Z 0418/0518 VRB06KT P6SM SCT030 BKN080
      TEMPO 0420/0424 25015KT 3SM -SHSN BKN025
     FM050000 29012KT 3SM -SN BR SCT015 BKN030
      TEMPO 0502/0506 1SM -SN BR BKN010
     FM051000 26008KT P6SM SCT015 BKN030=

USA.gov is the U.S. government's official web portal to all federal, state and local government web resources and services.